Akinaitsat, Greenland
Current Conditions -  °F | °C
As of 9:50 PM on Monday 20 Oct 2014 (Local Time) from BGKK Reporting Station
Clear Clear  
Wind Chill: 22°   Ceiling: Unl
Heat Index: 30°   Visibility: 6mi
Dew Point: 10°   Wind: 9mph
Humidity: 44%   Direction: 360°N
Pressure: 29.5"   Gusts: NA
Location:  65.53°N, 37.17°W
Report Text: BGKK 202350Z AUTO 36008KT 330V040 9999NDV NCD M01/M12 Q0999
Loading
Personal Weather Stations






























Interactive Weather Map
Tropical Storm Tracking
New forecast layout! Learn more

10-Day Weather Forecast

Advertisements
Track Severe Weather on mobile